sensor_id;sensor_type;location;lat;lon;timestamp;pressure;altitude;pressure_sealevel;temperature;humidity
16016;BME280;8112;53.592;10.184;2023-03-16T00:04:24;101671.25;;;0.32;100.00
16016;BME280;8112;53.592;10.184;2023-03-16T00:09:25;101679.88;;;0.31;100.00
16016;BME280;8112;53.592;10.184;2023-03-16T00:14:31;101685.06;;;0.34;100.00
16016;BME280;8112;53.592;10.184;2023-03-16T00:19:34;101690.25;;;0.31;100.00
16016;BME280;8112;53.592;10.184;2023-03-16T00:24:36;101692.00;;;0.26;100.00
16016;BME280;8112;53.592;10.184;2023-03-16T00:29:40;101686.81;;;0.24;100.00
16016;BME280;8112;53.592;10.184;2023-03-16T00:34:46;101698.03;;;0.31;100.00
16016;BME280;8112;53.592;10.184;2023-03-16T00:39:48;101691.13;;;0.30;100.00
16016;BME280;8112;53.592;10.184;2023-03-16T00:44:52;101688.53;;;0.27;100.00
16016;BME280;8112;53.592;10.184;2023-03-16T00:49:57;101694.59;;;0.23;100.00
16016;BME280;8112;53.592;10.184;2023-03-16T00:54:59;101698.06;;;0.22;100.00
16016;BME280;8112;53.592;10.184;2023-03-16T01:00:06;101694.59;;;0.23;100.00
16016;BME280;8112;53.592;10.184;2023-03-16T01:05:12;101691.13;;;0.18;100.00
16016;BME280;8112;53.592;10.184;2023-03-16T01:10:14;101700.63;;;0.16;100.00
16016;BME280;8112;53.592;10.184;2023-03-16T01:15:18;101696.34;;;0.05;100.00
16016;BME280;8112;53.592;10.184;2023-03-16T01:20:20;101686.81;;;0.07;100.00
16016;BME280;8112;53.592;10.184;2023-03-16T01:25:23;101682.50;;;0.08;100.00
16016;BME280;8112;53.592;10.184;2023-03-16T01:30:26;101680.75;;;0.07;100.00
16016;BME280;8112;53.592;10.184;2023-03-16T01:35:28;101670.41;;;0.04;100.00
16016;BME280;8112;53.592;10.184;2023-03-16T01:40:30;101674.72;;;-0.03;100.00
16016;BME280;8112;53.592;10.184;2023-03-16T01:51:28;101680.75;;;-0.15;100.00
16016;BME280;8112;53.592;10.184;2023-03-16T01:56:35;101679.03;;;-0.16;100.00
16016;BME280;8112;53.592;10.184;2023-03-16T02:01:38;101678.16;;;-0.23;100.00
16016;BME280;8112;53.592;10.184;2023-03-16T02:06:42;101674.69;;;-0.25;100.00
16016;BME280;8112;53.592;10.184;2023-03-16T02:11:45;101677.31;;;-0.26;100.00
16016;BME280;8112;53.592;10.184;2023-03-16T02:16:48;101673.81;;;-0.29;100.00
16016;BME280;8112;53.592;10.184;2023-03-16T02:21:56;101679.03;;;-0.25;100.00
16016;BME280;8112;53.592;10.184;2023-03-16T02:27:02;101666.94;;;-0.31;100.00
16016;BME280;8112;53.592;10.184;2023-03-16T02:32:09;101664.34;;;-0.31;100.00
16016;BME280;8112;53.592;10.184;2023-03-16T02:37:12;101661.78;;;-0.26;100.00
16016;BME280;8112;53.592;10.184;2023-03-16T02:42:17;101664.31;;;-0.30;100.00
16016;BME280;8112;53.592;10.184;2023-03-16T02:47:30;101666.06;;;-0.27;100.00
16016;BME280;8112;53.592;10.184;2023-03-16T02:52:32;101657.44;;;-0.20;100.00
16016;BME280;8112;53.592;10.184;2023-03-16T02:57:34;101660.03;;;-0.12;100.00
16016;BME280;8112;53.592;10.184;2023-03-16T03:02:43;101666.09;;;-0.08;100.00
16016;BME280;8112;53.592;10.184;2023-03-16T03:07:46;101671.28;;;-0.08;100.00
16016;BME280;8112;53.592;10.184;2023-03-16T03:12:48;101669.53;;;-0.12;100.00
16016;BME280;8112;53.592;10.184;2023-03-16T03:17:51;101668.69;;;-0.18;100.00
16016;BME280;8112;53.592;10.184;2023-03-16T03:22:55;101670.41;;;-0.17;100.00
16016;BME280;8112;53.592;10.184;2023-03-16T03:27:56;101675.56;;;-0.15;100.00
16016;BME280;8112;53.592;10.184;2023-03-16T03:33:01;101669.53;;;-0.16;100.00
16016;BME280;8112;53.592;10.184;2023-03-16T03:38:03;101668.69;;;-0.15;100.00
16016;BME280;8112;53.592;10.184;2023-03-16T03:43:07;101678.19;;;-0.10;100.00
16016;BME280;8112;53.592;10.184;2023-03-16T03:48:15;101668.69;;;-0.15;100.00
16016;BME280;8112;53.592;10.184;2023-03-16T03:53:17;101668.66;;;-0.22;100.00
16016;BME280;8112;53.592;10.184;2023-03-16T03:58:40;101679.03;;;-0.25;100.00
16016;BME280;8112;53.592;10.184;2023-03-16T04:03:45;101672.97;;;-0.32;100.00
16016;BME280;8112;53.592;10.184;2023-03-16T04:08:49;101661.75;;;-0.23;100.00
16016;BME280;8112;53.592;10.184;2023-03-16T04:13:56;101676.47;;;-0.18;100.00
16016;BME280;8112;53.592;10.184;2023-03-16T04:18:59;101679.91;;;-0.12;100.00
16016;BME280;8112;53.592;10.184;2023-03-16T04:24:02;101676.44;;;-0.08;100.00
16016;BME280;8112;53.592;10.184;2023-03-16T04:29:07;101671.28;;;-0.08;100.00
16016;BME280;8112;53.592;10.184;2023-03-16T04:34:11;101660.03;;;-0.12;100.00
16016;BME280;8112;53.592;10.184;2023-03-16T04:39:13;101669.53;;;-0.16;100.00
16016;BME280;8112;53.592;10.184;2023-03-16T04:44:15;101664.38;;;-0.12;100.00
16016;BME280;8112;53.592;10.184;2023-03-16T04:49:18;101673.88;;;-0.07;100.00
16016;BME280;8112;53.592;10.184;2023-03-16T04:54:20;101665.22;;;-0.04;100.00
16016;BME280;8112;53.592;10.184;2023-03-16T04:59:22;101658.31;;;-0.04;100.00
16016;BME280;8112;53.592;10.184;2023-03-16T05:04:38;101663.50;;;-0.01;100.00
16016;BME280;8112;53.592;10.184;2023-03-16T05:09:43;101660.03;;;0.05;100.00
16016;BME280;8112;53.592;10.184;2023-03-16T05:14:46;101660.03;;;0.07;100.00
16016;BME280;8112;53.592;10.184;2023-03-16T05:20:14;101647.06;;;0.11;100.00
16016;BME280;8112;53.592;10.184;2023-03-16T05:25:20;101650.53;;;0.10;100.00
16016;BME280;8112;53.592;10.184;2023-03-16T05:30:25;101657.44;;;0.11;100.00
16016;BME280;8112;53.592;10.184;2023-03-16T05:35:30;101654.00;;;0.14;100.00
16016;BME280;8112;53.592;10.184;2023-03-16T05:40:37;101652.25;;;0.16;100.00
16016;BME280;8112;53.592;10.184;2023-03-16T05:45:50;101676.47;;;0.23;100.00
16016;BME280;8112;53.592;10.184;2023-03-16T05:50:54;101675.56;;;0.35;100.00
16016;BME280;8112;53.592;10.184;2023-03-16T05:56:01;101683.31;;;0.49;100.00
16016;BME280;8112;53.592;10.184;2023-03-16T06:01:06;101681.59;;;0.57;100.00
16016;BME280;8112;53.592;10.184;2023-03-16T06:06:10;101677.22;;;0.68;100.00
16016;BME280;8112;53.592;10.184;2023-03-16T06:11:22;101676.31;;;0.93;100.00
16016;BME280;8112;53.592;10.184;2023-03-16T06:16:24;101671.06;;;0.99;100.00
16016;BME280;8112;53.592;10.184;2023-03-16T06:21:27;101668.47;;;1.01;100.00
16016;BME280;8112;53.592;10.184;2023-03-16T06:26:36;101671.84;;;1.21;100.00
16016;BME280;8112;53.592;10.184;2023-03-16T06:31:42;101676.13;;;1.35;100.00
16016;BME280;8112;53.592;10.184;2023-03-16T06:36:46;101688.94;;;1.63;100.00
16016;BME280;8112;53.592;10.184;2023-03-16T06:41:48;101688.84;;;1.78;100.00
16016;BME280;8112;53.592;10.184;2023-03-16T06:46:51;101697.22;;;2.16;100.00
16016;BME280;8112;53.592;10.184;2023-03-16T06:51:54;101680.63;;;2.31;100.00
16016;BME280;8112;53.592;10.184;2023-03-16T06:56:58;101685.75;;;2.40;100.00
16016;BME280;8112;53.592;10.184;2023-03-16T07:02:01;101682.06;;;2.62;100.00
16016;BME280;8112;53.592;10.184;2023-03-16T07:07:05;101682.72;;;2.79;100.00
16016;BME280;8112;53.592;10.184;2023-03-16T07:12:08;101682.81;;;2.73;100.00
16016;BME280;8112;53.592;10.184;2023-03-16T07:17:11;101679.28;;;2.77;100.00
16016;BME280;8112;53.592;10.184;2023-03-16T07:22:14;101690.50;;;2.85;100.00
16016;BME280;8112;53.592;10.184;2023-03-16T07:27:16;101690.38;;;2.96;100.00
16016;BME280;8112;53.592;10.184;2023-03-16T07:32:20;101686.38;;;3.38;100.00
16016;BME280;8112;53.592;10.184;2023-03-16T07:37:24;101683.41;;;3.64;100.00
16016;BME280;8112;53.592;10.184;2023-03-16T07:42:27;101689.22;;;3.80;100.00
16016;BME280;8112;53.592;10.184;2023-03-16T07:47:43;101689.88;;;3.96;100.00
16016;BME280;8112;53.592;10.184;2023-03-16T07:52:58;101687.38;;;3.89;100.00
16016;BME280;8112;53.592;10.184;2023-03-16T07:58:00;101688.41;;;3.78;100.00
16016;BME280;8112;53.592;10.184;2023-03-16T08:03:06;101703.75;;;3.97;100.00
16016;BME280;8112;53.592;10.184;2023-03-16T08:08:09;101697.47;;;4.10;100.00
16016;BME280;8112;53.592;10.184;2023-03-16T08:13:12;101698.06;;;4.26;100.00
16016;BME280;8112;53.592;10.184;2023-03-16T08:18:16;101693.31;;;4.49;100.00
16016;BME280;8112;53.592;10.184;2023-03-16T08:23:20;101683.44;;;4.65;100.00
16016;BME280;8112;53.592;10.184;2023-03-16T08:28:24;101691.44;;;5.03;100.00
16016;BME280;8112;53.592;10.184;2023-03-16T08:33:27;101690.56;;;5.02;100.00
16016;BME280;8112;53.592;10.184;2023-03-16T08:38:31;101682.78;;;4.99;100.00
16016;BME280;8112;53.592;10.184;2023-03-16T08:43:37;101686.31;;;4.98;100.00
16016;BME280;8112;53.592;10.184;2023-03-16T08:48:39;101683.34;;;5.15;100.00
16016;BME280;8112;53.592;10.184;2023-03-16T08:53:43;101686.16;;;5.47;100.00
16016;BME280;8112;53.592;10.184;2023-03-16T08:58:46;101688.63;;;5.53;100.00
16016;BME280;8112;53.592;10.184;2023-03-16T09:03:48;101681.66;;;5.53;100.00
16016;BME280;8112;53.592;10.184;2023-03-16T09:08:52;101680.78;;;5.91;100.00
16016;BME280;8112;53.592;10.184;2023-03-16T09:13:55;101670.75;;;6.10;100.00
16016;BME280;8112;53.592;10.184;2023-03-16T09:18:57;101659.38;;;6.11;100.00
16016;BME280;8112;53.592;10.184;2023-03-16T09:24:01;101668.03;;;6.48;100.00
16016;BME280;8112;53.592;10.184;2023-03-16T09:29:03;101648.13;;;6.74;100.00
16016;BME280;8112;53.592;10.184;2023-03-16T09:34:06;101656.88;;;6.73;100.00
16016;BME280;8112;53.592;10.184;2023-03-16T09:39:10;101636.03;;;6.69;100.00
16016;BME280;8112;53.592;10.184;2023-03-16T09:44:25;101640.91;;;6.82;100.00
16016;BME280;8112;53.592;10.184;2023-03-16T09:49:35;101630.53;;;6.79;100.00
16016;BME280;8112;53.592;10.184;2023-03-16T09:54:44;101627.94;;;6.77;100.00
16016;BME280;8112;53.592;10.184;2023-03-16T10:00:14;101626.19;;;7.36;100.00
16016;BME280;8112;53.592;10.184;2023-03-16T10:05:20;101629.72;;;7.91;100.00
16016;BME280;8112;53.592;10.184;2023-03-16T10:10:52;101626.91;;;8.22;100.00
16016;BME280;8112;53.592;10.184;2023-03-16T10:15:58;101619.28;;;8.15;100.00
16016;BME280;8112;53.592;10.184;2023-03-16T10:21:02;101607.19;;;8.10;100.00
16016;BME280;8112;53.592;10.184;2023-03-16T10:26:11;101607.50;;;8.52;100.00
16016;BME280;8112;53.592;10.184;2023-03-16T10:31:16;101600.03;;;8.89;100.00
16016;BME280;8112;53.592;10.184;2023-03-16T10:36:24;101616.09;;;8.81;100.00
16016;BME280;8112;53.592;10.184;2023-03-16T10:41:32;101605.50;;;9.29;100.00
16016;BME280;8112;53.592;10.184;2023-03-16T10:46:36;101594.75;;;9.78;100.00
16016;BME280;8112;53.592;10.184;2023-03-16T10:51:39;101598.56;;;9.70;100.00
16016;BME280;8112;53.592;10.184;2023-03-16T10:56:44;101587.91;;;9.94;100.00
16016;BME280;8112;53.592;10.184;2023-03-16T11:01:46;101583.56;;;9.93;100.00
16016;BME280;8112;53.592;10.184;2023-03-16T11:06:52;101564.13;;;9.97;95.42
16016;BME280;8112;53.592;10.184;2023-03-16T11:11:56;101566.53;;;9.81;94.59
16016;BME280;8112;53.592;10.184;2023-03-16T11:17:01;101566.06;;;9.92;86.59
16016;BME280;8112;53.592;10.184;2023-03-16T11:22:07;101550.34;;;10.71;76.97
16016;BME280;8112;53.592;10.184;2023-03-16T11:27:19;101542.50;;;11.25;69.58
16016;BME280;8112;53.592;10.184;2023-03-16T11:32:26;101545.44;;;11.55;65.43
16016;BME280;8112;53.592;10.184;2023-03-16T11:37:41;101528.50;;;11.60;63.52
16016;BME280;8112;53.592;10.184;2023-03-16T11:42:54;101531.41;;;11.89;62.24
16016;BME280;8112;53.592;10.184;2023-03-16T11:48:12;101528.66;;;12.25;60.02
16016;BME280;8112;53.592;10.184;2023-03-16T11:53:28;101513.53;;;12.77;59.46
16016;BME280;8112;53.592;10.184;2023-03-16T11:58:46;101510.84;;;13.56;56.25
16016;BME280;8112;53.592;10.184;2023-03-16T12:04:17;101496.22;;;14.08;53.55
16016;BME280;8112;53.592;10.184;2023-03-16T12:09:48;101483.34;;;14.46;49.51
16016;BME280;8112;53.592;10.184;2023-03-16T12:15:11;101476.47;;;14.56;48.35
16016;BME280;8112;53.592;10.184;2023-03-16T12:20:19;101475.88;;;14.80;43.82
16016;BME280;8112;53.592;10.184;2023-03-16T12:25:26;101471.81;;;14.03;42.27
16016;BME280;8112;53.592;10.184;2023-03-16T12:30:38;101460.44;;;13.58;44.38
16016;BME280;8112;53.592;10.184;2023-03-16T12:35:47;101465.41;;;13.17;43.91
16016;BME280;8112;53.592;10.184;2023-03-16T12:40:57;101452.31;;;13.90;45.12
16016;BME280;8112;53.592;10.184;2023-03-16T12:46:07;101450.41;;;14.06;43.06
16016;BME280;8112;53.592;10.184;2023-03-16T12:51:11;101431.28;;;14.30;42.64
16016;BME280;8112;53.592;10.184;2023-03-16T12:56:15;101421.22;;;13.64;43.37
16016;BME280;8112;53.592;10.184;2023-03-16T13:01:25;101419.97;;;13.56;43.22
16016;BME280;8112;53.592;10.184;2023-03-16T13:06:31;101409.38;;;13.25;43.21
16016;BME280;8112;53.592;10.184;2023-03-16T13:11:42;101397.19;;;13.82;42.09
16016;BME280;8112;53.592;10.184;2023-03-16T13:16:50;101388.94;;;14.56;43.68
16016;BME280;8112;53.592;10.184;2023-03-16T13:22:18;101382.50;;;14.60;40.79
16016;BME280;8112;53.592;10.184;2023-03-16T13:27:22;101372.47;;;13.52;43.03
16016;BME280;8112;53.592;10.184;2023-03-16T13:32:30;101378.72;;;13.06;42.96
16016;BME280;8112;53.592;10.184;2023-03-16T13:37:32;101370.28;;;12.85;41.30
16016;BME280;8112;53.592;10.184;2023-03-16T13:42:34;101359.81;;;13.43;40.02
16016;BME280;8112;53.592;10.184;2023-03-16T13:47:41;101358.56;;;12.89;39.01
16016;BME280;8112;53.592;10.184;2023-03-16T13:52:55;101360.03;;;11.50;41.55
16016;BME280;8112;53.592;10.184;2023-03-16T13:57:57;101356.38;;;11.19;43.28
16016;BME280;8112;53.592;10.184;2023-03-16T14:03:12;101358.91;;;10.68;44.64
16016;BME280;8112;53.592;10.184;2023-03-16T14:08:16;101345.97;;;10.63;45.93
16016;BME280;8112;53.592;10.184;2023-03-16T14:13:25;101334.56;;;10.26;46.32
16016;BME280;8112;53.592;10.184;2023-03-16T14:18:36;101333.34;;;10.14;44.78
16016;BME280;8112;53.592;10.184;2023-03-16T14:23:39;101341.34;;;9.93;48.16
16016;BME280;8112;53.592;10.184;2023-03-16T14:28:53;101325.50;;;9.95;47.75
16016;BME280;8112;53.592;10.184;2023-03-16T14:34:01;101321.41;;;9.49;48.86
16016;BME280;8112;53.592;10.184;2023-03-16T14:39:10;101321.78;;;9.21;49.95
16016;BME280;8112;53.592;10.184;2023-03-16T14:44:19;101315.34;;;9.28;49.92
16016;BME280;8112;53.592;10.184;2023-03-16T14:49:25;101300.56;;;9.05;47.48
16016;BME280;8112;53.592;10.184;2023-03-16T14:54:28;101287.09;;;9.32;49.37
16016;BME280;8112;53.592;10.184;2023-03-16T14:59:30;101283.28;;;9.39;48.51
16016;BME280;8112;53.592;10.184;2023-03-16T15:04:34;101268.53;;;9.55;50.43
16016;BME280;8112;53.592;10.184;2023-03-16T15:09:39;101262.31;;;9.37;51.54
16016;BME280;8112;53.592;10.184;2023-03-16T15:14:42;101259.25;;;9.27;51.85
16016;BME280;8112;53.592;10.184;2023-03-16T15:20:04;101259.94;;;8.91;52.59
16016;BME280;8112;53.592;10.184;2023-03-16T15:25:24;101245.06;;;8.71;53.24
16016;BME280;8112;53.592;10.184;2023-03-16T15:30:28;101250.97;;;8.55;54.46
16016;BME280;8112;53.592;10.184;2023-03-16T15:35:32;101233.56;;;8.53;55.04
16016;BME280;8112;53.592;10.184;2023-03-16T15:40:36;101237.34;;;8.46;56.62
16016;BME280;8112;53.592;10.184;2023-03-16T15:45:39;101234.53;;;8.50;57.66
16016;BME280;8112;53.592;10.184;2023-03-16T15:50:46;101227.63;;;8.48;57.51
16016;BME280;8112;53.592;10.184;2023-03-16T15:55:53;101237.25;;;8.47;60.35
16016;BME280;8112;53.592;10.184;2023-03-16T16:01:00;101223.47;;;8.64;59.96
16016;BME280;8112;53.592;10.184;2023-03-16T16:06:08;101223.19;;;8.50;59.07
16016;BME280;8112;53.592;10.184;2023-03-16T16:11:13;101223.69;;;8.58;58.33
16016;BME280;8112;53.592;10.184;2023-03-16T16:16:17;101227.06;;;8.19;58.79
16016;BME280;8112;53.592;10.184;2023-03-16T16:21:22;101210.47;;;7.96;58.90
16016;BME280;8112;53.592;10.184;2023-03-16T16:26:27;101217.81;;;7.88;59.75
16016;BME280;8112;53.592;10.184;2023-03-16T16:31:30;101224.88;;;7.85;58.12
16016;BME280;8112;53.592;10.184;2023-03-16T16:36:33;101228.03;;;7.72;58.45
16016;BME280;8112;53.592;10.184;2023-03-16T16:41:36;101223.66;;;7.72;58.52
16016;BME280;8112;53.592;10.184;2023-03-16T16:46:39;101212.25;;;7.73;59.83
16016;BME280;8112;53.592;10.184;2023-03-16T16:51:43;101222.47;;;7.57;61.57
16016;BME280;8112;53.592;10.184;2023-03-16T16:56:45;101222.88;;;7.46;61.77
16016;BME280;8112;53.592;10.184;2023-03-16T17:01:48;101210.03;;;7.40;64.01
16016;BME280;8112;53.592;10.184;2023-03-16T17:06:54;101212.00;;;7.33;65.34
16016;BME280;8112;53.592;10.184;2023-03-16T17:11:58;101196.72;;;7.21;67.36
16016;BME280;8112;53.592;10.184;2023-03-16T17:17:01;101197.84;;;7.15;69.00
16016;BME280;8112;53.592;10.184;2023-03-16T17:22:19;101193.59;;;7.11;71.18
16016;BME280;8112;53.592;10.184;2023-03-16T17:27:23;101191.34;;;7.02;72.91
16016;BME280;8112;53.592;10.184;2023-03-16T17:32:28;101193.56;;;6.89;75.37
16016;BME280;8112;53.592;10.184;2023-03-16T17:37:31;101200.66;;;6.85;78.51
16016;BME280;8112;53.592;10.184;2023-03-16T17:42:32;101196.19;;;6.89;79.71
16016;BME280;8112;53.592;10.184;2023-03-16T17:47:34;101208.00;;;6.75;81.40
16016;BME280;8112;53.592;10.184;2023-03-16T17:52:40;101204.63;;;6.72;82.88
16016;BME280;8112;53.592;10.184;2023-03-16T17:57:42;101205.41;;;6.74;84.66
16016;BME280;8112;53.592;10.184;2023-03-16T18:02:47;101192.41;;;6.72;87.52
16016;BME280;8112;53.592;10.184;2023-03-16T18:07:52;101177.84;;;6.63;90.22
16016;BME280;8112;53.592;10.184;2023-03-16T18:13:00;101170.16;;;6.59;93.16
16016;BME280;8112;53.592;10.184;2023-03-16T18:18:04;101167.66;;;6.55;94.58
16016;BME280;8112;53.592;10.184;2023-03-16T18:23:13;101170.91;;;6.62;94.97
16016;BME280;8112;53.592;10.184;2023-03-16T18:28:16;101173.97;;;6.50;98.05
16016;BME280;8112;53.592;10.184;2023-03-16T18:33:22;101147.88;;;6.47;100.00
16016;BME280;8112;53.592;10.184;2023-03-16T18:38:28;101146.88;;;6.51;100.00
16016;BME280;8112;53.592;10.184;2023-03-16T18:43:30;101147.34;;;6.37;100.00
16016;BME280;8112;53.592;10.184;2023-03-16T18:48:33;101142.97;;;6.37;100.00
16016;BME280;8112;53.592;10.184;2023-03-16T18:53:37;101153.66;;;6.31;100.00
16016;BME280;8112;53.592;10.184;2023-03-16T18:58:39;101142.16;;;6.35;100.00
16016;BME280;8112;53.592;10.184;2023-03-16T19:03:42;101134.63;;;6.26;100.00
16016;BME280;8112;53.592;10.184;2023-03-16T19:08:45;101145.09;;;6.26;100.00
16016;BME280;8112;53.592;10.184;2023-03-16T19:13:47;101131.25;;;6.22;100.00
16016;BME280;8112;53.592;10.184;2023-03-16T19:18:49;101112.19;;;6.19;100.00
16016;BME280;8112;53.592;10.184;2023-03-16T19:23:56;101113.06;;;6.19;100.00
16016;BME280;8112;53.592;10.184;2023-03-16T19:29:00;101102.38;;;6.25;100.00
16016;BME280;8112;53.592;10.184;2023-03-16T19:34:02;101100.53;;;6.27;100.00
16016;BME280;8112;53.592;10.184;2023-03-16T19:39:05;101102.63;;;6.18;100.00
16016;BME280;8112;53.592;10.184;2023-03-16T19:44:12;101101.53;;;6.25;100.00
16016;BME280;8112;53.592;10.184;2023-03-16T19:49:17;101094.31;;;6.06;100.00
16016;BME280;8112;53.592;10.184;2023-03-16T19:54:22;101083.06;;;6.04;100.00
16016;BME280;8112;53.592;10.184;2023-03-16T19:59:27;101077.91;;;6.01;100.00
16016;BME280;8112;53.592;10.184;2023-03-16T20:04:30;101085.91;;;5.96;100.00
16016;BME280;8112;53.592;10.184;2023-03-16T20:09:34;101088.66;;;5.92;100.00
16016;BME280;8112;53.592;10.184;2023-03-16T20:14:36;101085.34;;;5.87;100.00
16016;BME280;8112;53.592;10.184;2023-03-16T20:19:38;101086.63;;;6.00;100.00
16016;BME280;8112;53.592;10.184;2023-03-16T20:24:41;101081.38;;;6.00;100.00
16016;BME280;8112;53.592;10.184;2023-03-16T20:29:43;101070.28;;;5.93;100.00
16016;BME280;8112;53.592;10.184;2023-03-16T20:34:45;101059.63;;;5.99;100.00
16016;BME280;8112;53.592;10.184;2023-03-16T20:39:49;101053.44;;;6.02;100.00
16016;BME280;8112;53.592;10.184;2023-03-16T20:44:50;101049.66;;;6.11;100.00
16016;BME280;8112;53.592;10.184;2023-03-16T20:49:54;101052.50;;;6.05;100.00
16016;BME280;8112;53.592;10.184;2023-03-16T20:54:58;101047.38;;;6.00;100.00
16016;BME280;8112;53.592;10.184;2023-03-16T20:59:59;101027.69;;;5.90;100.00
16016;BME280;8112;53.592;10.184;2023-03-16T21:05:04;101029.56;;;5.86;100.00
16016;BME280;8112;53.592;10.184;2023-03-16T21:10:09;101032.72;;;5.96;100.00
16016;BME280;8112;53.592;10.184;2023-03-16T21:15:19;101015.00;;;5.79;100.00
16016;BME280;8112;53.592;10.184;2023-03-16T21:20:25;101004.97;;;5.65;100.00
16016;BME280;8112;53.592;10.184;2023-03-16T21:25:30;100996.53;;;5.58;100.00
16016;BME280;8112;53.592;10.184;2023-03-16T21:30:36;100993.97;;;5.55;100.00
16016;BME280;8112;53.592;10.184;2023-03-16T21:35:38;100990.63;;;5.51;100.00
16016;BME280;8112;53.592;10.184;2023-03-16T21:40:42;100971.63;;;5.46;100.00
16016;BME280;8112;53.592;10.184;2023-03-16T21:45:44;100973.53;;;5.41;100.00
16016;BME280;8112;53.592;10.184;2023-03-16T21:50:47;100977.28;;;5.34;100.00
16016;BME280;8112;53.592;10.184;2023-03-16T21:55:51;100972.84;;;5.36;100.00
16016;BME280;8112;53.592;10.184;2023-03-16T22:00:54;100972.16;;;5.31;100.00
16016;BME280;8112;53.592;10.184;2023-03-16T22:05:58;100971.94;;;5.37;100.00
16016;BME280;8112;53.592;10.184;2023-03-16T22:11:02;100973.94;;;5.28;100.00
16016;BME280;8112;53.592;10.184;2023-03-16T22:16:09;100964.16;;;5.35;100.00
16016;BME280;8112;53.592;10.184;2023-03-16T22:21:26;100964.25;;;5.32;100.00
16016;BME280;8112;53.592;10.184;2023-03-16T22:26:30;100965.97;;;5.33;100.00
16016;BME280;8112;53.592;10.184;2023-03-16T22:31:34;100956.41;;;5.32;100.00
16016;BME280;8112;53.592;10.184;2023-03-16T22:36:38;100956.38;;;5.34;100.00
16016;BME280;8112;53.592;10.184;2023-03-16T22:41:41;100956.38;;;5.34;100.00
16016;BME280;8112;53.592;10.184;2023-03-16T22:46:42;100951.03;;;5.37;100.00
16016;BME280;8112;53.592;10.184;2023-03-16T22:51:44;100951.16;;;5.34;100.00
16016;BME280;8112;53.592;10.184;2023-03-16T22:56:47;100940.81;;;5.31;100.00
16016;BME280;8112;53.592;10.184;2023-03-16T23:01:49;100929.63;;;5.25;100.00
16016;BME280;8112;53.592;10.184;2023-03-16T23:06:52;100920.09;;;5.24;100.00
16016;BME280;8112;53.592;10.184;2023-03-16T23:11:55;100906.44;;;5.16;100.00
16016;BME280;8112;53.592;10.184;2023-03-16T23:16:58;100913.56;;;5.11;100.00
16016;BME280;8112;53.592;10.184;2023-03-16T23:22:02;100918.72;;;5.14;100.00
16016;BME280;8112;53.592;10.184;2023-03-16T23:27:13;100897.16;;;5.07;100.00
16016;BME280;8112;53.592;10.184;2023-03-16T23:32:16;100884.03;;;5.09;100.00
16016;BME280;8112;53.592;10.184;2023-03-16T23:37:18;100881.38;;;5.10;100.00
16016;BME280;8112;53.592;10.184;2023-03-16T23:42:21;100894.56;;;5.06;100.00
16016;BME280;8112;53.592;10.184;2023-03-16T23:47:24;100880.72;;;5.04;100.00
16016;BME280;8112;53.592;10.184;2023-03-16T23:52:25;100891.38;;;4.97;100.00
16016;BME280;8112;53.592;10.184;2023-03-16T23:57:29;100888.69;;;4.99;100.00
